Keystone Heights, Florida
Current Conditions -  °F | °C
As of 8:35 AM on Monday 22 Dec 2014 (Local Time) from K42J Reporting Station
Overcast Overcast  
Wind Chill: 64°   Ceiling: 200
Heat Index: 64°   Visibility: 6mi
Dew Point: 64°   Wind: 7mph
Humidity: 100%   Direction: 140°SE
Pressure: 30.01"   Gusts: NA
Location:  29.79°N, 82.03°W
Report Text: K42J 221335Z AUTO 14006KT 6SM OVC002 18/18 A3001 RMK AO1 TSNO
Loading
Personal Weather Stations






























Interactive Weather Map New forecast layout! Learn more

10-Day Weather Forecast

Advertisements
Track Severe Weather on mobile